sensor_id;sensor_type;location;lat;lon;timestamp;temperature;humidity
55026;DHT22;40925;45.666;18.994;2022-12-18T00:17:06;0.80;2201.60
55026;DHT22;40925;45.666;18.994;2022-12-18T00:20:18;0.40;1817.60
55026;DHT22;40925;45.666;18.994;2022-12-18T00:29:20;0.30;2201.60
55026;DHT22;40925;45.666;18.994;2022-12-18T00:31:52;0.30;2201.60
55026;DHT22;40925;45.666;18.994;2022-12-18T00:34:31;0.30;2201.60
55026;DHT22;40925;45.666;18.994;2022-12-18T00:39:50;0.00;2201.60
55026;DHT22;40925;45.666;18.994;2022-12-18T00:46:25;0.20;2201.60
55026;DHT22;40925;45.666;18.994;2022-12-18T00:49:04;0.30;2201.60
55026;DHT22;40925;45.666;18.994;2022-12-18T00:54:18;0.90;2201.60
55026;DHT22;40925;45.666;18.994;2022-12-18T01:00:16;0.20;2201.60
55026;DHT22;40925;45.666;18.994;2022-12-18T01:02:53;0.10;2201.60
55026;DHT22;40925;45.666;18.994;2022-12-18T01:05:21;0.10;2201.60
55026;DHT22;40925;45.666;18.994;2022-12-18T01:07:57;0.10;2201.60
55026;DHT22;40925;45.666;18.994;2022-12-18T01:10:40;0.10;2201.60
55026;DHT22;40925;45.666;18.994;2022-12-18T01:13:29;0.20;2201.60
55026;DHT22;40925;45.666;18.994;2022-12-18T01:18:32;0.00;2201.60
55026;DHT22;40925;45.666;18.994;2022-12-18T01:21:06;0.20;2201.60
55026;DHT22;40925;45.666;18.994;2022-12-18T01:23:45;0.10;2201.60
55026;DHT22;40925;45.666;18.994;2022-12-18T01:29:00;0.00;2201.60
55026;DHT22;40925;45.666;18.994;2022-12-18T01:31:47;0.20;2201.60
55026;DHT22;40925;45.666;18.994;2022-12-18T01:34:15;0.10;2201.60
55026;DHT22;40925;45.666;18.994;2022-12-18T01:36:44;0.10;2201.60
55026;DHT22;40925;45.666;18.994;2022-12-18T01:39:47;0.10;2201.60
55026;DHT22;40925;45.666;18.994;2022-12-18T01:42:50;0.10;2201.60
55026;DHT22;40925;45.666;18.994;2022-12-18T01:45:48;0.00;2201.60
55026;DHT22;40925;45.666;18.994;2022-12-18T01:48:25;12.90;2201.60
55026;DHT22;40925;45.666;18.994;2022-12-18T01:51:15;0.00;2201.60
55026;DHT22;40925;45.666;18.994;2022-12-18T01:53:53;12.90;2201.60
55026;DHT22;40925;45.666;18.994;2022-12-18T01:56:56;12.90;2201.60
55026;DHT22;40925;45.666;18.994;2022-12-18T01:59:44;12.90;2201.60
55026;DHT22;40925;45.666;18.994;2022-12-18T02:05:16;0.00;2201.60
55026;DHT22;40925;45.666;18.994;2022-12-18T02:17:43;13.00;2201.60
55026;DHT22;40925;45.666;18.994;2022-12-18T02:21:07;13.00;2201.60
55026;DHT22;40925;45.666;18.994;2022-12-18T02:24:59;13.00;2201.60
55026;DHT22;40925;45.666;18.994;2022-12-18T02:31:06;13.00;2201.60
55026;DHT22;40925;45.666;18.994;2022-12-18T02:33:59;13.00;2201.60
55026;DHT22;40925;45.666;18.994;2022-12-18T02:45:22;13.00;2201.60
55026;DHT22;40925;45.666;18.994;2022-12-18T04:47:16;13.60;2201.60
55026;DHT22;40925;45.666;18.994;2022-12-18T04:50:41;13.60;2201.60
55026;DHT22;40925;45.666;18.994;2022-12-18T05:04:08;13.10;2201.60
55026;DHT22;40925;45.666;18.994;2022-12-18T08:22:10;0.40;2201.60
55026;DHT22;40925;45.666;18.994;2022-12-18T09:06:39;25.70;2201.60
55026;DHT22;40925;45.666;18.994;2022-12-18T09:09:56;26.00;2201.60
55026;DHT22;40925;45.666;18.994;2022-12-18T09:12:30;25.80;2201.60
55026;DHT22;40925;45.666;18.994;2022-12-18T11:20:37;0.90;2201.60
55026;DHT22;40925;45.666;18.994;2022-12-18T15:25:39;0.00;2201.60
55026;DHT22;40925;45.666;18.994;2022-12-18T16:00:11;0.00;2201.60
55026;DHT22;40925;45.666;18.994;2022-12-18T16:38:31;13.20;2201.60
55026;DHT22;40925;45.666;18.994;2022-12-18T17:02:14;13.30;2201.60
55026;DHT22;40925;45.666;18.994;2022-12-18T17:05:07;13.20;2201.60
55026;DHT22;40925;45.666;18.994;2022-12-18T17:08:33;13.30;2201.60
55026;DHT22;40925;45.666;18.994;2022-12-18T17:11:36;0.00;2201.60
55026;DHT22;40925;45.666;18.994;2022-12-18T17:19:44;0.10;2201.60
55026;DHT22;40925;45.666;18.994;2022-12-18T17:23:08;13.40;2201.60
55026;DHT22;40925;45.666;18.994;2022-12-18T17:29:47;13.40;2201.60
55026;DHT22;40925;45.666;18.994;2022-12-18T17:40:10;38.60;2201.60
55026;DHT22;40925;45.666;18.994;2022-12-18T17:43:03;38.40;2201.60
55026;DHT22;40925;45.666;18.994;2022-12-18T17:54:24;13.20;2201.60
55026;DHT22;40925;45.666;18.994;2022-12-18T17:57:10;13.70;2201.60
55026;DHT22;40925;45.666;18.994;2022-12-18T18:06:00;38.50;2201.60
55026;DHT22;40925;45.666;18.994;2022-12-18T18:08:34;38.40;2201.60
55026;DHT22;40925;45.666;18.994;2022-12-18T18:17:33;38.40;2201.60
55026;DHT22;40925;45.666;18.994;2022-12-18T18:20:32;38.40;2201.60
55026;DHT22;40925;45.666;18.994;2022-12-18T18:23:09;38.40;2201.60
55026;DHT22;40925;45.666;18.994;2022-12-18T18:26:10;38.50;2201.60
55026;DHT22;40925;45.666;18.994;2022-12-18T18:34:17;13.40;2201.60
55026;DHT22;40925;45.666;18.994;2022-12-18T18:37:00;38.70;2201.60
55026;DHT22;40925;45.666;18.994;2022-12-18T18:39:37;38.60;2201.60
55026;DHT22;40925;45.666;18.994;2022-12-18T19:08:23;38.80;2201.60
55026;DHT22;40925;45.666;18.994;2022-12-18T19:11:03;39.00;2201.60
55026;DHT22;40925;45.666;18.994;2022-12-18T19:14:11;38.80;2201.60
55026;DHT22;40925;45.666;18.994;2022-12-18T19:16:41;38.80;2201.60
55026;DHT22;40925;45.666;18.994;2022-12-18T19:19:23;38.80;2201.60
55026;DHT22;40925;45.666;18.994;2022-12-18T19:22:09;38.80;2201.60
55026;DHT22;40925;45.666;18.994;2022-12-18T19:24:49;38.80;2201.60
55026;DHT22;40925;45.666;18.994;2022-12-18T19:27:18;38.40;2201.60
55026;DHT22;40925;45.666;18.994;2022-12-18T19:29:48;38.70;2201.60
55026;DHT22;40925;45.666;18.994;2022-12-18T19:32:34;38.80;2201.60
55026;DHT22;40925;45.666;18.994;2022-12-18T19:35:05;38.60;2201.60
55026;DHT22;40925;45.666;18.994;2022-12-18T19:38:01;38.50;2201.60
55026;DHT22;40925;45.666;18.994;2022-12-18T19:42:53;38.40;2201.60
55026;DHT22;40925;45.666;18.994;2022-12-18T19:45:21;38.60;2201.60
55026;DHT22;40925;45.666;18.994;2022-12-18T19:47:49;38.60;2201.60
55026;DHT22;40925;45.666;18.994;2022-12-18T19:50:30;38.70;2201.60
55026;DHT22;40925;45.666;18.994;2022-12-18T19:52:57;12.90;2201.60
55026;DHT22;40925;45.666;18.994;2022-12-18T19:55:29;39.00;2201.60
55026;DHT22;40925;45.666;18.994;2022-12-18T19:57:58;39.00;2201.60
55026;DHT22;40925;45.666;18.994;2022-12-18T20:00:55;38.90;2201.60
55026;DHT22;40925;45.666;18.994;2022-12-18T20:03:20;38.90;2201.60
55026;DHT22;40925;45.666;18.994;2022-12-18T20:05:55;39.00;2201.60
55026;DHT22;40925;45.666;18.994;2022-12-18T20:08:30;39.10;2201.60
55026;DHT22;40925;45.666;18.994;2022-12-18T20:10:56;38.60;2201.60
55026;DHT22;40925;45.666;18.994;2022-12-18T20:13:23;39.20;2201.60
55026;DHT22;40925;45.666;18.994;2022-12-18T20:16:29;39.20;2201.60
55026;DHT22;40925;45.666;18.994;2022-12-18T20:18:57;39.20;2201.60
55026;DHT22;40925;45.666;18.994;2022-12-18T20:21:24;39.30;2201.60
55026;DHT22;40925;45.666;18.994;2022-12-18T20:23:50;38.80;2201.60
55026;DHT22;40925;45.666;18.994;2022-12-18T20:26:24;39.20;2201.60
55026;DHT22;40925;45.666;18.994;2022-12-18T20:28:54;39.20;2201.60
55026;DHT22;40925;45.666;18.994;2022-12-18T20:31:22;39.20;2201.60
55026;DHT22;40925;45.666;18.994;2022-12-18T20:33:50;39.20;2201.60
55026;DHT22;40925;45.666;18.994;2022-12-18T20:36:22;64.00;2201.60
55026;DHT22;40925;45.666;18.994;2022-12-18T20:38:54;64.00;2201.60
55026;DHT22;40925;45.666;18.994;2022-12-18T20:41:24;64.00;2201.60
55026;DHT22;40925;45.666;18.994;2022-12-18T20:43:53;39.30;2201.60
55026;DHT22;40925;45.666;18.994;2022-12-18T20:46:19;39.30;2201.60
55026;DHT22;40925;45.666;18.994;2022-12-18T20:48:46;39.20;2201.60
55026;DHT22;40925;45.666;18.994;2022-12-18T20:51:17;39.20;2201.60
55026;DHT22;40925;45.666;18.994;2022-12-18T20:53:47;39.10;2201.60
55026;DHT22;40925;45.666;18.994;2022-12-18T20:56:22;39.10;2201.60
55026;DHT22;40925;45.666;18.994;2022-12-18T20:59:02;39.10;2201.60
55026;DHT22;40925;45.666;18.994;2022-12-18T21:04:53;39.10;2201.60
55026;DHT22;40925;45.666;18.994;2022-12-18T21:07:26;39.10;2201.60
55026;DHT22;40925;45.666;18.994;2022-12-18T21:09:52;39.10;2201.60
55026;DHT22;40925;45.666;18.994;2022-12-18T21:12:22;64.10;2201.60
55026;DHT22;40925;45.666;18.994;2022-12-18T21:15:04;39.10;2201.60
55026;DHT22;40925;45.666;18.994;2022-12-18T21:17:37;39.10;2201.60
55026;DHT22;40925;45.666;18.994;2022-12-18T21:20:18;39.10;2201.60
55026;DHT22;40925;45.666;18.994;2022-12-18T21:22:45;39.10;2201.60
55026;DHT22;40925;45.666;18.994;2022-12-18T21:25:13;39.10;2201.60
55026;DHT22;40925;45.666;18.994;2022-12-18T21:27:40;39.10;2201.60
55026;DHT22;40925;45.666;18.994;2022-12-18T21:30:08;39.10;2201.60
55026;DHT22;40925;45.666;18.994;2022-12-18T21:32:34;39.10;2201.60
55026;DHT22;40925;45.666;18.994;2022-12-18T21:35:03;39.10;2201.60
55026;DHT22;40925;45.666;18.994;2022-12-18T21:37:31;64.10;2201.60
55026;DHT22;40925;45.666;18.994;2022-12-18T21:39:58;39.00;2201.60
55026;DHT22;40925;45.666;18.994;2022-12-18T21:42:27;39.10;2201.60
55026;DHT22;40925;45.666;18.994;2022-12-18T21:48:15;39.20;2201.60
55026;DHT22;40925;45.666;18.994;2022-12-18T21:50:43;38.70;2201.60
55026;DHT22;40925;45.666;18.994;2022-12-18T21:53:12;39.10;2201.60
55026;DHT22;40925;45.666;18.994;2022-12-18T21:55:58;39.20;2201.60
55026;DHT22;40925;45.666;18.994;2022-12-18T21:58:25;39.20;2201.60
55026;DHT22;40925;45.666;18.994;2022-12-18T22:00:53;38.70;2201.60
55026;DHT22;40925;45.666;18.994;2022-12-18T22:03:24;39.20;2201.60
55026;DHT22;40925;45.666;18.994;2022-12-18T22:05:50;39.20;2201.60
55026;DHT22;40925;45.666;18.994;2022-12-18T22:08:16;39.20;2201.60
55026;DHT22;40925;45.666;18.994;2022-12-18T22:10:45;39.20;2201.60
55026;DHT22;40925;45.666;18.994;2022-12-18T22:13:12;39.10;2201.60
55026;DHT22;40925;45.666;18.994;2022-12-18T22:16:03;39.00;2201.60
55026;DHT22;40925;45.666;18.994;2022-12-18T22:18:32;38.90;2201.60
55026;DHT22;40925;45.666;18.994;2022-12-18T22:21:04;39.10;2201.60
55026;DHT22;40925;45.666;18.994;2022-12-18T22:23:31;39.20;2201.60
55026;DHT22;40925;45.666;18.994;2022-12-18T22:25:57;39.30;2201.60
55026;DHT22;40925;45.666;18.994;2022-12-18T22:28:23;64.00;2201.60
55026;DHT22;40925;45.666;18.994;2022-12-18T22:31:09;64.10;2201.60
55026;DHT22;40925;45.666;18.994;2022-12-18T22:33:36;64.00;2201.60
55026;DHT22;40925;45.666;18.994;2022-12-18T22:36:06;64.00;2201.60
55026;DHT22;40925;45.666;18.994;2022-12-18T22:38:34;39.30;2201.60
55026;DHT22;40925;45.666;18.994;2022-12-18T22:41:01;39.30;2201.60
55026;DHT22;40925;45.666;18.994;2022-12-18T22:43:30;39.30;2201.60
55026;DHT22;40925;45.666;18.994;2022-12-18T22:45:57;39.10;2201.60
55026;DHT22;40925;45.666;18.994;2022-12-18T22:48:27;64.10;2201.60
55026;DHT22;40925;45.666;18.994;2022-12-18T22:50:55;39.00;2201.60
55026;DHT22;40925;45.666;18.994;2022-12-18T22:53:23;64.10;2201.60
55026;DHT22;40925;45.666;18.994;2022-12-18T22:55:49;64.00;2201.60
55026;DHT22;40925;45.666;18.994;2022-12-18T22:58:14;64.00;2201.60
55026;DHT22;40925;45.666;18.994;2022-12-18T23:04:03;39.30;2201.60
55026;DHT22;40925;45.666;18.994;2022-12-18T23:06:29;39.20;2201.60
55026;DHT22;40925;45.666;18.994;2022-12-18T23:08:55;39.30;2201.60
55026;DHT22;40925;45.666;18.994;2022-12-18T23:11:25;39.20;2201.60
55026;DHT22;40925;45.666;18.994;2022-12-18T23:13:51;39.20;2201.60
55026;DHT22;40925;45.666;18.994;2022-12-18T23:16:19;39.30;2201.60
55026;DHT22;40925;45.666;18.994;2022-12-18T23:18:45;39.30;2201.60
55026;DHT22;40925;45.666;18.994;2022-12-18T23:21:14;38.90;2201.60
55026;DHT22;40925;45.666;18.994;2022-12-18T23:23:40;39.30;2201.60
55026;DHT22;40925;45.666;18.994;2022-12-18T23:26:08;39.20;2201.60
55026;DHT22;40925;45.666;18.994;2022-12-18T23:28:35;64.00;2201.60
55026;DHT22;40925;45.666;18.994;2022-12-18T23:33:39;64.00;2201.60
55026;DHT22;40925;45.666;18.994;2022-12-18T23:36:05;64.20;2201.60
55026;DHT22;40925;45.666;18.994;2022-12-18T23:38:32;64.10;2201.60
55026;DHT22;40925;45.666;18.994;2022-12-18T23:41:05;38.60;2201.60
55026;DHT22;40925;45.666;18.994;2022-12-18T23:43:31;64.00;2201.60
55026;DHT22;40925;45.666;18.994;2022-12-18T23:45:57;64.10;2201.60
55026;DHT22;40925;45.666;18.994;2022-12-18T23:48:23;39.30;2201.60
55026;DHT22;40925;45.666;18.994;2022-12-18T23:50:48;39.20;2201.60
55026;DHT22;40925;45.666;18.994;2022-12-18T23:53:15;39.30;2201.60
55026;DHT22;40925;45.666;18.994;2022-12-18T23:55:44;64.10;2201.60
55026;DHT22;40925;45.666;18.994;2022-12-18T23:58:19;64.10;2201.60
